Time;durP1;ratioP1;P1;durP2;ratioP2;P2;SDS_P1;SDS_P2;PMS_P1;PMS_P2;Temp;Humidity;BMP_temperature;BMP_pressure;BME280_temperature;BME280_humidity;BME280_pressure;Samples;Min_cycle;Max_cycle;Signal;HPM_P1;HPM_P2
2022/10/02 00:02:26;;;;;;;13.13;6.95;;;10.60;99.90;;;;;;5046225;28;20144;-61
2022/10/02 00:04:54;;;;;;;11.07;6.25;;;10.60;99.90;;;;;;5047180;28;20028;-61
2022/10/02 00:07:30;;;;;;;10.60;6.35;;;10.60;99.90;;;;;;5046136;28;20041;-60
2022/10/02 00:10:05;;;;;;;13.13;6.53;;;10.50;99.90;;;;;;5045637;28;20025;-61
2022/10/02 00:12:34;;;;;;;13.45;6.95;;;10.50;99.90;;;;;;5048089;28;20033;-62
2022/10/02 00:15:11;;;;;;;11.98;7.25;;;10.60;99.90;;;;;;5051301;28;20506;-61
2022/10/02 00:17:42;;;;;;;11.50;6.93;;;10.60;99.90;;;;;;5051260;28;20032;-61
2022/10/02 00:20:13;;;;;;;13.93;7.00;;;10.60;99.90;;;;;;5052213;28;20380;-63
2022/10/02 00:22:38;;;;;;;12.73;7.30;;;10.60;99.90;;;;;;5052254;28;20028;-62
2022/10/02 00:25:19;;;;;;;20.15;8.48;;;10.50;99.90;;;;;;5050806;28;20040;-62
2022/10/02 00:28:03;;;;;;;45.78;28.83;;;10.60;99.90;;;;;;5052392;28;20091;-62
2022/10/02 00:30:35;;;;;;;18.60;11.40;;;10.50;99.90;;;;;;5052273;28;20051;-62
2022/10/02 00:33:13;;;;;;;14.00;9.68;;;10.50;99.90;;;;;;5052190;28;20071;-61
2022/10/02 00:35:57;;;;;;;17.52;9.23;;;10.50;99.90;;;;;;5051994;28;20064;-61
2022/10/02 00:38:51;;;;;;;13.70;8.07;;;10.40;99.90;;;;;;5052071;28;20032;-63
2022/10/02 00:41:55;;;;;;;13.43;8.40;;;10.40;99.90;;;;;;5050627;28;20030;-62
2022/10/02 00:44:29;;;;;;;13.05;7.72;;;10.50;99.90;;;;;;5050482;28;20454;-62
2022/10/02 00:47:02;;;;;;;17.35;8.85;;;10.50;99.90;;;;;;5051874;28;20070;-61
2022/10/02 00:49:46;;;;;;;21.77;8.32;;;10.50;99.90;;;;;;5051909;28;20025;-62
2022/10/02 00:52:40;;;;;;;11.90;7.13;;;10.50;99.90;;;;;;5051987;28;20024;-62
2022/10/02 00:55:30;;;;;;;20.83;8.07;;;10.50;99.90;;;;;;5050541;28;20094;-63
2022/10/02 00:58:06;;;;;;;15.32;7.97;;;10.50;99.90;;;;;;5050390;28;20033;-61
2022/10/02 01:00:32;;;;;;;13.48;7.30;;;10.50;99.90;;;;;;5051599;28;20021;-62
2022/10/02 01:03:22;;;;;;;17.48;7.57;;;10.50;99.90;;;;;;5051607;28;20052;-63
2022/10/02 01:05:48;;;;;;;16.52;8.57;;;10.50;99.90;;;;;;5051709;28;20076;-63
2022/10/02 01:08:15;;;;;;;20.70;9.88;;;10.50;99.90;;;;;;5051592;28;20083;-62
2022/10/02 01:10:41;;;;;;;9.45;6.13;;;10.50;99.90;;;;;;5051463;28;20051;-62
2022/10/02 01:13:08;;;;;;;16.10;7.78;;;10.50;99.90;;;;;;5050257;28;20029;-62
2022/10/02 01:15:42;;;;;;;11.15;7.22;;;10.50;99.90;;;;;;5051510;28;20021;-62
2022/10/02 01:18:11;;;;;;;14.32;7.32;;;10.50;99.90;;;;;;5049850;28;20029;-62
2022/10/02 01:20:41;;;;;;;12.13;7.35;;;10.50;99.90;;;;;;5051357;28;20117;-62
2022/10/02 01:23:12;;;;;;;17.05;8.05;;;10.50;99.90;;;;;;5051215;28;20104;-62
2022/10/02 01:25:38;;;;;;;13.30;7.13;;;10.50;99.90;;;;;;5051219;28;20063;-62
2022/10/02 01:28:04;;;;;;;11.25;7.65;;;10.50;99.90;;;;;;5051082;28;20040;-62
2022/10/02 01:30:33;;;;;;;11.63;7.00;;;10.50;99.90;;;;;;5051336;28;20461;-61
2022/10/02 01:33:01;;;;;;;12.82;7.28;;;10.50;99.90;;;;;;5051052;28;20029;-61
2022/10/02 01:35:32;;;;;;;10.20;6.57;;;10.50;99.90;;;;;;5051074;28;20583;-61
2022/10/02 01:38:01;;;;;;;19.33;7.25;;;10.50;99.90;;;;;;5051132;28;20520;-62
2022/10/02 01:40:35;;;;;;;12.02;6.32;;;10.50;99.90;;;;;;5051107;28;20021;-61
2022/10/02 01:43:17;;;;;;;10.98;6.00;;;10.60;99.90;;;;;;5051040;28;20451;-61
2022/10/02 01:46:03;;;;;;;9.70;5.97;;;10.60;99.90;;;;;;5051074;28;20041;-61
2022/10/02 01:48:46;;;;;;;12.45;5.85;;;10.60;99.90;;;;;;5050674;28;20109;-62
2022/10/02 01:51:29;;;;;;;11.95;6.18;;;10.60;99.90;;;;;;5051030;28;20050;-62
2022/10/02 01:54:16;;;;;;;9.80;5.57;;;10.70;99.90;;;;;;5050885;28;20128;-61
2022/10/02 01:57:01;;;;;;;9.98;5.68;;;10.70;99.90;;;;;;5037731;28;20032;-62
2022/10/02 01:59:37;;;;;;;12.65;5.13;;;10.70;99.90;;;;;;5030919;28;20025;-62
2022/10/02 02:02:20;;;;;;;8.82;4.75;;;10.70;99.90;;;;;;5030836;28;20022;-62
2022/10/02 02:04:46;;;;;;;10.90;5.43;;;10.70;99.90;;;;;;5030890;28;20049;-61
2022/10/02 02:07:39;;;;;;;10.68;5.85;;;10.70;99.90;;;;;;5030640;28;20057;-61
2022/10/02 02:10:33;;;;;;;31.13;19.15;;;10.70;99.90;;;;;;5029143;28;20026;-62
2022/10/02 02:13:10;;;;;;;21.98;18.02;;;10.70;99.90;;;;;;5030375;28;20060;-61
2022/10/02 02:15:50;;;;;;;8.80;6.47;;;10.80;99.90;;;;;;5030720;28;20040;-61
2022/10/02 02:18:40;;;;;;;20.80;7.68;;;10.70;99.90;;;;;;5032229;28;20511;-61
2022/10/02 02:21:17;;;;;;;11.23;5.65;;;10.70;99.90;;;;;;5030108;28;20037;-62
2022/10/02 02:23:44;;;;;;;19.92;6.88;;;10.70;99.90;;;;;;5030366;28;20049;-61
2022/10/02 02:26:11;;;;;;;14.25;6.50;;;10.70;99.90;;;;;;5030334;28;20098;-62
2022/10/02 02:28:42;;;;;;;;;;;10.80;99.90;;;;;;5030592;28;20060;-61
2022/10/02 02:31:12;;;;;;;12.73;5.93;;;10.80;99.90;;;;;;5030366;28;19905;-61
2022/10/02 02:33:47;;;;;;;11.00;5.32;;;10.80;99.90;;;;;;5030057;28;20202;-61
2022/10/02 02:36:18;;;;;;;11.05;6.55;;;10.90;99.90;;;;;;5029605;28;20037;-61
2022/10/02 02:38:51;;;;;;;14.68;7.00;;;10.90;99.90;;;;;;5062078;28;20021;-61
2022/10/02 02:41:25;;;;;;;15.52;7.03;;;10.90;99.90;;;;;;5029975;28;20028;-62
2022/10/02 02:43:54;;;;;;;12.65;6.72;;;10.90;99.90;;;;;;5045605;28;20074;-60
2022/10/02 02:46:29;;;;;;;13.27;6.75;;;10.90;99.90;;;;;;5048587;28;20041;-61
2022/10/02 02:49:01;;;;;;;14.70;7.65;;;10.90;99.90;;;;;;5046904;28;20682;-61
2022/10/02 02:51:33;;;;;;;14.48;7.78;;;11.00;99.90;;;;;;5030267;28;20032;-61
2022/10/02 02:54:15;;;;;;;10.90;6.82;;;11.00;99.90;;;;;;5030334;28;20021;-61
2022/10/02 02:56:42;;;;;;;12.23;6.50;;;11.00;99.90;;;;;;5030053;28;20037;-61
2022/10/02 02:59:10;;;;;;;17.38;6.90;;;11.00;99.90;;;;;;5029998;28;20049;-61
2022/10/02 03:01:36;;;;;;;11.90;6.40;;;11.00;99.90;;;;;;5028640;28;20048;-61
2022/10/02 03:04:02;;;;;;;11.52;6.53;;;11.00;99.90;;;;;;5061758;28;20025;-61
2022/10/02 03:06:35;;;;;;;11.43;6.65;;;11.00;99.90;;;;;;5029956;28;20417;-61
2022/10/02 03:09:03;;;;;;;14.77;7.03;;;11.00;99.90;;;;;;5029745;28;20052;-60
2022/10/02 03:11:34;;;;;;;8.85;6.10;;;11.00;99.90;;;;;;5029818;28;20112;-61
2022/10/02 03:14:37;;;;;;;18.27;6.53;;;11.10;99.90;;;;;;5029734;28;20802;-60
2022/10/02 03:17:20;;;;;;;16.27;7.32;;;11.00;99.90;;;;;;5029732;28;20021;-60
2022/10/02 03:19:58;;;;;;;9.02;5.85;;;11.10;99.90;;;;;;5040336;28;20040;-61
2022/10/02 03:22:49;;;;;;;12.32;6.22;;;11.10;99.90;;;;;;5048412;28;20021;-61
2022/10/02 03:25:41;;;;;;;8.85;5.88;;;11.10;99.90;;;;;;5049542;28;20392;-61
2022/10/02 03:28:22;;;;;;;10.23;4.60;;;11.10;99.90;;;;;;5049618;28;20025;-60
2022/10/02 03:30:51;;;;;;;11.43;4.90;;;11.10;99.90;;;;;;5049870;28;20021;-61
2022/10/02 03:33:17;;;;;;;9.23;4.95;;;11.10;99.90;;;;;;5049477;28;20397;-61
2022/10/02 03:35:44;;;;;;;11.02;5.40;;;11.10;99.90;;;;;;5049384;28;20064;-61
2022/10/02 03:38:12;;;;;;;8.85;4.95;;;11.10;99.90;;;;;;5049609;28;20061;-61
2022/10/02 03:40:39;;;;;;;18.88;7.68;;;11.10;99.90;;;;;;5048201;28;20044;-60
2022/10/02 03:43:05;;;;;;;38.72;30.40;;;11.10;99.90;;;;;;5048420;28;20068;-61
2022/10/02 03:45:31;;;;;;;29.10;25.92;;;11.10;99.90;;;;;;5049492;28;20150;-60
2022/10/02 03:47:56;;;;;;;24.75;22.00;;;11.10;99.90;;;;;;5051269;28;20127;-61
2022/10/02 03:50:22;;;;;;;8.73;5.07;;;11.20;99.90;;;;;;5053652;28;20107;-61
2022/10/02 03:52:52;;;;;;;10.43;5.45;;;11.20;99.90;;;;;;5052248;28;20044;-61
2022/10/02 03:55:36;;;;;;;17.92;6.60;;;11.20;99.90;;;;;;5053513;28;20052;-61
2022/10/02 03:58:10;;;;;;;20.63;7.47;;;11.20;99.90;;;;;;5053469;28;20103;-61
2022/10/02 04:01:09;;;;;;;15.32;6.15;;;11.20;99.90;;;;;;5053495;28;20080;-60
2022/10/02 04:03:39;;;;;;;17.48;7.07;;;11.30;99.90;;;;;;5075274;28;20115;-61
2022/10/02 04:06:14;;;;;;;9.75;5.20;;;11.20;99.90;;;;;;5053250;28;20024;-61
2022/10/02 04:08:54;;;;;;;7.85;5.20;;;11.20;99.90;;;;;;5053194;28;20543;-60
2022/10/02 04:11:22;;;;;;;16.00;5.88;;;11.30;99.90;;;;;;5052982;28;20028;-61
2022/10/02 04:14:01;;;;;;;14.18;4.68;;;11.20;99.90;;;;;;5052840;28;20102;-61
2022/10/02 04:16:34;;;;;;;8.55;4.13;;;11.30;99.90;;;;;;5043919;28;20436;-60
2022/10/02 04:19:12;;;;;;;10.15;4.05;;;11.30;99.90;;;;;;5052758;28;20052;-60
2022/10/02 04:21:59;;;;;;;9.77;4.00;;;11.30;99.90;;;;;;5052845;28;20451;-60
2022/10/02 04:25:00;;;;;;;11.07;4.57;;;11.30;99.90;;;;;;5053020;28;20025;-60
2022/10/02 04:27:34;;;;;;;8.05;3.58;;;11.30;99.90;;;;;;5051361;28;20064;-61
2022/10/02 04:30:09;;;;;;;11.80;5.05;;;11.30;99.90;;;;;;5052448;28;20033;-60
2022/10/02 04:32:35;;;;;;;7.68;3.63;;;11.30;99.90;;;;;;5052702;28;20025;-61
2022/10/02 04:35:11;;;;;;;9.55;3.53;;;11.30;99.90;;;;;;5051353;28;20369;-61
2022/10/02 04:38:04;;;;;;;6.57;3.83;;;11.40;99.90;;;;;;5052411;28;20484;-60
2022/10/02 04:40:35;;;;;;;9.98;4.18;;;11.40;99.90;;;;;;5052669;28;20484;-61
2022/10/02 04:43:42;;;;;;;8.18;3.97;;;11.40;99.90;;;;;;5052421;28;20036;-60
2022/10/02 04:46:45;;;;;;;8.57;3.60;;;11.40;99.90;;;;;;5052088;28;20488;-61
2022/10/02 04:49:21;;;;;;;7.43;3.40;;;11.40;99.90;;;;;;5052226;28;20472;-61
2022/10/02 04:52:00;;;;;;;7.85;3.35;;;11.30;99.90;;;;;;5052281;28;20379;-61
2022/10/02 04:54:35;;;;;;;4.20;2.55;;;11.30;99.90;;;;;;5052264;28;20083;-60
2022/10/02 04:57:07;;;;;;;10.50;3.45;;;11.30;99.90;;;;;;5052231;28;20060;-60
2022/10/02 05:00:08;;;;;;;9.70;3.80;;;11.30;99.90;;;;;;5051607;28;20060;-60
2022/10/02 05:02:58;;;;;;;12.10;3.88;;;11.30;99.90;;;;;;5052211;28;20024;-61
2022/10/02 05:05:42;;;;;;;6.55;3.50;;;11.30;99.90;;;;;;5051776;28;20025;-61
2022/10/02 05:08:19;;;;;;;7.97;3.50;;;11.30;99.90;;;;;;5052128;28;20056;-60
2022/10/02 05:11:11;;;;;;;8.18;4.13;;;11.30;99.90;;;;;;5052006;28;20048;-61
2022/10/02 05:13:46;;;;;;;14.18;7.50;;;11.30;99.90;;;;;;5050854;28;20037;-60
2022/10/02 05:16:23;;;;;;;14.90;10.60;;;11.30;99.90;;;;;;5051838;28;20025;-60
2022/10/02 05:19:15;;;;;;;24.27;19.88;;;11.30;99.90;;;;;;5051988;28;20464;-60
2022/10/02 05:21:40;;;;;;;7.95;5.63;;;11.30;99.90;;;;;;5051514;28;20032;-60
2022/10/02 05:24:36;;;;;;;7.47;3.58;;;11.30;99.90;;;;;;5051737;28;20108;-60
2022/10/02 05:27:04;;;;;;;8.55;3.85;;;11.30;99.90;;;;;;5051579;28;20140;-60
2022/10/02 05:29:43;;;;;;;8.32;3.97;;;11.30;99.90;;;;;;5051622;28;20028;-61
2022/10/02 05:32:18;;;;;;;6.75;3.55;;;11.40;99.90;;;;;;5050357;28;20021;-61
2022/10/02 05:35:05;;;;;;;8.38;3.72;;;11.30;99.90;;;;;;5051738;28;20384;-60
2022/10/02 05:37:52;;;;;;;7.40;3.17;;;11.40;99.90;;;;;;5051166;28;20053;-60
2022/10/02 05:40:35;;;;;;;6.65;3.33;;;11.30;99.90;;;;;;5051507;28;20162;-60
2022/10/02 05:43:18;;;;;;;7.15;3.58;;;11.30;99.90;;;;;;5051327;28;20032;-60
2022/10/02 05:45:51;;;;;;;5.35;3.30;;;11.40;99.90;;;;;;5051186;28;20064;-60
2022/10/02 05:48:29;;;;;;;6.65;3.33;;;11.40;99.90;;;;;;5051370;28;20037;-61
2022/10/02 05:51:05;;;;;;;10.77;4.18;;;11.30;99.90;;;;;;5051465;28;20040;-61
2022/10/02 05:53:37;;;;;;;12.98;4.82;;;11.40;99.90;;;;;;5051287;28;20041;-61
2022/10/02 05:56:15;;;;;;;16.98;6.28;;;11.40;99.90;;;;;;5049714;28;20044;-60
2022/10/02 05:58:50;;;;;;;8.20;4.70;;;11.40;99.90;;;;;;5051102;28;20069;-60
2022/10/02 06:01:20;;;;;;;11.30;4.78;;;11.40;99.90;;;;;;5050812;28;20032;-60
2022/10/02 06:04:00;;;;;;;11.63;4.68;;;11.40;99.90;;;;;;5051187;28;20061;-60
2022/10/02 06:06:38;;;;;;;12.93;5.18;;;11.40;99.90;;;;;;5050671;28;20506;-60
2022/10/02 06:09:18;;;;;;;12.52;3.95;;;11.40;99.90;;;;;;5050656;28;20748;-60
2022/10/02 06:11:49;;;;;;;7.65;3.45;;;11.40;99.90;;;;;;5050418;28;20031;-60
2022/10/02 06:14:31;;;;;;;8.32;3.42;;;11.50;99.90;;;;;;5050912;28;20330;-60
2022/10/02 06:17:04;;;;;;;8.18;3.40;;;11.50;99.90;;;;;;5050653;28;20048;-60
2022/10/02 06:19:53;;;;;;;13.93;4.20;;;11.50;99.90;;;;;;5049224;28;20036;-60
2022/10/02 06:22:20;;;;;;;;;;;11.50;99.90;;;;;;5051044;28;20033;-60
2022/10/02 06:25:37;;;;;;;10.27;4.32;;;11.40;99.90;;;;;;5050389;28;19991;-61
2022/10/02 06:28:24;;;;;;;9.15;4.00;;;11.40;99.90;;;;;;5049024;28;20111;-59
2022/10/02 06:31:17;;;;;;;10.05;4.40;;;11.50;99.90;;;;;;5036120;28;20033;-60
2022/10/02 06:33:43;;;;;;;9.13;4.28;;;11.50;99.90;;;;;;5030467;28;20496;-59
2022/10/02 06:36:28;;;;;;;7.18;3.35;;;11.50;99.90;;;;;;5029836;28;20045;-60
2022/10/02 06:38:57;;;;;;;9.75;4.00;;;11.60;99.90;;;;;;5030646;28;20559;-60
2022/10/02 06:42:00;;;;;;;6.72;2.95;;;11.60;99.90;;;;;;5030025;28;20232;-60
2022/10/02 06:44:41;;;;;;;8.95;3.78;;;11.60;99.90;;;;;;5030416;28;20026;-60
2022/10/02 06:47:33;;;;;;;6.60;3.53;;;11.70;99.90;;;;;;5030233;28;20053;-60
2022/10/02 06:50:02;;;;;;;11.68;4.30;;;11.80;99.90;;;;;;5028842;28;20056;-60
2022/10/02 06:52:48;;;;;;;8.80;3.97;;;11.80;99.90;;;;;;5030344;28;20653;-60
2022/10/02 06:55:47;;;;;;;7.18;3.40;;;11.80;99.90;;;;;;5030222;28;20025;-59
2022/10/02 06:58:31;;;;;;;11.02;4.35;;;11.80;99.90;;;;;;5028700;28;20053;-60
2022/10/02 07:01:29;;;;;;;6.72;3.20;;;11.90;99.90;;;;;;5030410;28;20029;-60
2022/10/02 07:04:04;;;;;;;8.00;3.67;;;11.90;99.90;;;;;;5030061;28;20029;-60
2022/10/02 07:06:43;;;;;;;8.55;4.15;;;12.00;99.90;;;;;;5029819;28;20808;-59
2022/10/02 07:09:30;;;;;;;8.55;3.63;;;12.00;99.90;;;;;;5042939;28;20083;-59
2022/10/02 07:12:14;;;;;;;5.75;2.95;;;12.10;99.90;;;;;;5049191;28;20029;-59
2022/10/02 07:14:58;;;;;;;11.45;3.67;;;12.10;99.90;;;;;;5047021;28;20017;-59
2022/10/02 07:17:39;;;;;;;7.35;3.10;;;12.10;99.90;;;;;;5047548;28;20053;-59
2022/10/02 07:20:11;;;;;;;9.10;3.38;;;12.20;99.90;;;;;;5046468;28;20029;-59
2022/10/02 07:22:51;;;;;;;12.18;2.95;;;12.30;99.90;;;;;;5049514;28;20195;-61
2022/10/02 07:25:29;;;;;;;8.73;2.67;;;12.40;99.90;;;;;;5049749;28;20424;-61
2022/10/02 07:28:22;;;;;;;3.97;2.30;;;12.50;99.90;;;;;;5049655;28;20037;-60
2022/10/02 07:31:23;;;;;;;6.20;2.63;;;12.50;99.90;;;;;;5049632;28;20112;-60
2022/10/02 07:34:26;;;;;;;5.63;2.20;;;12.70;99.90;;;;;;5048912;28;20067;-60
2022/10/02 07:37:12;;;;;;;5.35;2.38;;;12.90;99.90;;;;;;5047186;28;20053;-60
2022/10/02 07:40:09;;;;;;;6.15;2.20;;;12.90;99.90;;;;;;5048246;28;20029;-60
2022/10/02 07:43:02;;;;;;;5.72;2.00;;;13.00;99.90;;;;;;5047634;28;20682;-60
2022/10/02 07:45:40;;;;;;;9.10;2.20;;;13.00;99.90;;;;;;5046814;28;20036;-60
2022/10/02 07:48:30;;;;;;;4.45;2.05;;;13.00;99.90;;;;;;5049252;28;20421;-59
2022/10/02 07:51:45;;;;;;;6.45;2.25;;;13.00;99.90;;;;;;5048665;28;20047;-59
2022/10/02 07:54:31;;;;;;;5.32;2.00;;;13.30;99.90;;;;;;5045904;28;20100;-60
2022/10/02 07:57:11;;;;;;;7.57;1.90;;;13.60;99.90;;;;;;5053741;28;20418;-60
2022/10/02 07:59:42;;;;;;;11.85;2.17;;;13.60;99.90;;;;;;5052653;28;20170;-60
2022/10/02 08:02:40;;;;;;;6.55;2.03;;;13.60;99.90;;;;;;5048447;28;20025;-61
2022/10/02 08:05:24;;;;;;;4.80;1.90;;;13.70;99.90;;;;;;5028060;28;20064;-61
2022/10/02 08:07:53;;;;;;;6.45;1.90;;;13.70;99.90;;;;;;5045289;28;20043;-64
2022/10/02 08:10:27;;;;;;;6.72;1.40;;;13.50;99.90;;;;;;5047918;28;20557;-61
2022/10/02 08:13:05;;;;;;;7.03;1.80;;;13.60;99.90;;;;;;5049228;28;20068;-61
2022/10/02 08:15:35;;;;;;;4.68;1.67;;;13.90;99.90;;;;;;5046140;28;20040;-60
2022/10/02 08:18:09;;;;;;;5.10;2.00;;;14.20;99.90;;;;;;5047122;28;20128;-61
2022/10/02 08:20:39;;;;;;;6.88;2.13;;;14.50;99.90;;;;;;5046800;28;20036;-60
2022/10/02 08:23:22;;;;;;;6.90;1.50;;;14.40;99.90;;;;;;5047445;28;20091;-60
2022/10/02 08:26:09;;;;;;;6.45;1.40;;;14.50;99.90;;;;;;5046373;28;20511;-60
2022/10/02 08:29:00;;;;;;;7.85;1.40;;;14.80;99.90;;;;;;5047858;28;20135;-60
2022/10/02 08:31:26;;;;;;;8.00;1.83;;;14.60;99.90;;;;;;5046201;28;20029;-59
2022/10/02 08:33:51;;;;;;;4.07;1.30;;;14.60;99.90;;;;;;5048641;28;20044;-60
2022/10/02 08:36:44;;;;;;;6.40;1.83;;;14.90;99.90;;;;;;5049808;28;20645;-59
2022/10/02 08:39:27;;;;;;;5.93;1.30;;;14.80;99.90;;;;;;5049056;28;20029;-59
2022/10/02 08:42:03;;;;;;;6.40;2.15;;;14.90;99.90;;;;;;5049730;28;20025;-60
2022/10/02 08:45:06;;;;;;;10.48;1.50;;;15.00;99.90;;;;;;5048693;28;20036;-60
2022/10/02 08:47:50;;;;;;;8.90;1.58;;;14.80;99.90;;;;;;5049518;28;20112;-60
2022/10/02 08:50:51;;;;;;;10.35;1.95;;;14.60;99.90;;;;;;5051028;28;20499;-60
2022/10/02 08:53:50;;;;;;;6.80;1.63;;;14.60;99.90;;;;;;5048350;28;20078;-59
2022/10/02 08:56:34;;;;;;;;;;;14.80;99.90;;;;;;5049792;28;20110;-58
2022/10/02 08:59:25;;;;;;;8.13;1.50;;;14.90;99.90;;;;;;5049563;28;19909;-60
2022/10/02 09:02:20;;;;;;;6.95;1.33;;;15.00;99.90;;;;;;5047971;28;20055;-59
2022/10/02 09:05:00;;;;;;;8.93;1.30;;;15.10;99.90;;;;;;5053212;28;20029;-60
2022/10/02 09:07:47;;;;;;;5.07;1.15;;;15.40;99.90;;;;;;5060112;28;20127;-60
2022/10/02 09:10:57;;;;;;;11.45;2.42;;;15.80;99.90;;;;;;5060855;28;20021;-60
2022/10/02 09:14:08;;;;;;;6.75;1.83;;;15.50;99.90;;;;;;5061787;28;20075;-60
2022/10/02 09:16:58;;;;;;;7.90;1.70;;;15.30;99.90;;;;;;5030614;28;20112;-60
2022/10/02 09:19:50;;;;;;;10.23;2.15;;;15.90;99.90;;;;;;5026605;28;20065;-60
2022/10/02 09:22:21;;;;;;;5.35;1.30;;;15.80;99.90;;;;;;5027064;28;20037;-60
2022/10/02 09:25:05;;;;;;;11.25;1.40;;;16.10;99.90;;;;;;5049292;28;20391;-59
2022/10/02 09:27:40;;;;;;;5.40;1.98;;;15.90;99.90;;;;;;5049848;28;20045;-59
2022/10/02 09:30:21;;;;;;;6.00;2.58;;;15.90;99.90;;;;;;5049692;28;20040;-59
2022/10/02 09:33:38;;;;;;;7.63;1.70;;;16.00;99.90;;;;;;5050355;28;20093;-59
2022/10/02 09:36:49;;;;;;;11.27;2.88;;;16.00;99.90;;;;;;5046907;28;20040;-60
2022/10/02 09:39:53;;;;;;;5.78;1.77;;;16.40;99.90;;;;;;5047912;28;20697;-60
2022/10/02 09:42:25;;;;;;;11.60;3.65;;;16.80;99.90;;;;;;5048864;28;20013;-59
2022/10/02 09:45:12;;;;;;;8.65;3.20;;;16.90;99.90;;;;;;5048713;28;20040;-59
2022/10/02 09:48:16;;;;;;;7.07;2.28;;;17.10;99.90;;;;;;5046779;28;20082;-60
2022/10/02 09:50:48;;;;;;;6.20;1.23;;;17.80;99.90;;;;;;5048652;28;20021;-59
2022/10/02 09:53:17;;;;;;;8.15;1.67;;;17.40;99.90;;;;;;5048226;28;20017;-59
2022/10/02 09:56:07;;;;;;;6.68;0.98;;;17.20;99.90;;;;;;5048646;28;20052;-59
2022/10/02 09:58:42;;;;;;;4.55;1.27;;;17.30;99.90;;;;;;5048477;28;20028;-59
2022/10/02 10:01:17;;;;;;;8.88;1.30;;;17.40;99.90;;;;;;5047271;28;20036;-59
2022/10/02 10:04:00;;;;;;;3.88;0.90;;;17.50;99.10;;;;;;5048504;28;20495;-59
2022/10/02 10:06:26;;;;;;;6.18;1.15;;;17.40;98.10;;;;;;5047706;28;20653;-59
2022/10/02 10:09:20;;;;;;;4.80;1.33;;;17.10;98.70;;;;;;5048202;28;20021;-59
2022/10/02 10:12:05;;;;;;;8.48;2.10;;;17.30;99.40;;;;;;5048200;28;20067;-59
2022/10/02 10:14:51;;;;;;;7.07;1.45;;;17.20;99.30;;;;;;5048766;28;20475;-59
2022/10/02 10:17:52;;;;;;;8.85;2.17;;;16.90;99.10;;;;;;5047096;28;20448;-58
2022/10/02 10:20:36;;;;;;;6.55;1.45;;;16.60;99.90;;;;;;5049225;28;20033;-59
2022/10/02 10:23:19;;;;;;;6.55;1.52;;;16.50;99.90;;;;;;5047532;28;20055;-59
2022/10/02 10:26:02;;;;;;;5.53;1.48;;;16.40;99.70;;;;;;5050008;28;20036;-59
2022/10/02 10:29:01;;;;;;;6.07;1.33;;;16.20;99.70;;;;;;5049878;28;20032;-59
2022/10/02 10:32:06;;;;;;;3.28;0.88;;;16.20;99.90;;;;;;5047032;28;20056;-59
2022/10/02 10:34:56;;;;;;;4.68;1.30;;;16.60;99.90;;;;;;5049206;28;20025;-60
2022/10/02 10:41:00;;;;;;;6.43;1.52;;;17.00;99.90;;;;;;5047813;28;20471;-59
2022/10/02 10:43:50;;;;;;;6.20;1.52;;;17.00;99.90;;;;;;5046372;28;20040;-60
2022/10/02 10:46:35;;;;;;;9.57;1.38;;;16.90;99.90;;;;;;5047576;28;20045;-58
2022/10/02 10:49:22;;;;;;;5.30;1.45;;;16.70;99.90;;;;;;5048488;28;20024;-59
2022/10/02 10:52:14;;;;;;;6.35;1.40;;;16.70;99.90;;;;;;5048563;28;20025;-58
2022/10/02 10:54:47;;;;;;;9.35;1.80;;;16.80;99.90;;;;;;5048466;28;20033;-59
2022/10/02 10:57:16;;;;;;;7.07;1.30;;;16.50;99.90;;;;;;5046399;28;20051;-58
2022/10/02 11:00:02;;;;;;;4.60;1.33;;;16.40;99.90;;;;;;5048361;28;20025;-58
2022/10/02 11:02:37;;;;;;;8.80;1.55;;;17.00;99.90;;;;;;5046509;28;20175;-58
2022/10/02 11:05:40;;;;;;;7.47;2.00;;;17.20;99.90;;;;;;5048250;28;20465;-58
2022/10/02 11:08:27;;;;;;;5.40;1.80;;;16.90;99.90;;;;;;5048124;28;20068;-59
2022/10/02 11:11:11;;;;;;;9.27;1.60;;;16.80;99.90;;;;;;5048273;28;20036;-59
2022/10/02 11:14:14;;;;;;;7.32;1.20;;;16.80;99.90;;;;;;5048097;28;20025;-59
2022/10/02 11:17:06;;;;;;;4.15;1.08;;;16.80;99.60;;;;;;5047928;28;20032;-58
2022/10/02 11:19:40;;;;;;;12.43;1.75;;;17.30;99.10;;;;;;5044864;28;20025;-59
2022/10/02 11:22:24;;;;;;;7.57;1.85;;;17.80;98.70;;;;;;5047858;28;20028;-58
2022/10/02 11:25:19;;;;;;;7.97;1.50;;;17.50;97.90;;;;;;5047906;28;20013;-59
2022/10/02 11:27:48;;;;;;;5.07;1.73;;;17.00;99.10;;;;;;5047207;28;20116;-59
2022/10/02 11:30:31;;;;;;;4.40;1.40;;;17.20;99.90;;;;;;5047088;28;20021;-58
2022/10/02 11:33:17;;;;;;;4.28;1.20;;;17.00;99.90;;;;;;5047603;28;20013;-59
2022/10/02 11:36:04;;;;;;;4.22;1.85;;;17.10;99.90;;;;;;5045652;28;20024;-59
2022/10/02 11:39:07;;;;;;;5.00;1.80;;;16.70;99.90;;;;;;5046538;28;20129;-59
2022/10/02 11:42:02;;;;;;;4.55;1.75;;;16.50;99.90;;;;;;5047084;28;20021;-59
2022/10/02 11:44:36;;;;;;;6.22;1.70;;;16.50;99.90;;;;;;5044937;28;20040;-59
2022/10/02 11:47:18;;;;;;;2.25;1.13;;;16.40;99.90;;;;;;5046490;28;20033;-59
2022/10/02 11:50:00;;;;;;;6.78;1.35;;;16.20;99.90;;;;;;5047001;28;20375;-59
2022/10/02 11:52:58;;;;;;;5.43;1.67;;;16.10;99.90;;;;;;5045165;28;20029;-59
2022/10/02 11:55:43;;;;;;;4.80;1.50;;;16.10;99.90;;;;;;5047123;28;20079;-60
2022/10/02 11:58:40;;;;;;;7.55;1.85;;;16.10;99.90;;;;;;5046820;28;20025;-59
2022/10/02 12:01:32;;;;;;;5.10;1.60;;;16.20;99.90;;;;;;5046721;28;20040;-60
2022/10/02 12:04:36;;;;;;;5.57;1.48;;;16.70;99.90;;;;;;5047275;28;20065;-59
2022/10/02 12:07:16;;;;;;;6.43;2.25;;;16.90;99.70;;;;;;5050771;28;20032;-59
2022/10/02 12:10:24;;;;;;;8.05;1.50;;;16.90;99.30;;;;;;5053823;28;20029;-60
2022/10/02 12:13:02;;;;;;;8.57;1.77;;;18.30;98.00;;;;;;5049245;28;20060;-59
2022/10/02 12:15:47;;;;;;;3.80;1.02;;;18.20;96.60;;;;;;5052231;28;20036;-60
2022/10/02 12:18:22;;;;;;;3.40;1.35;;;17.80;96.00;;;;;;5052254;28;20029;-62
2022/10/02 12:27:23;;;;;;;4.75;1.85;;;18.80;95.90;;;;;;5051689;28;20500;-60
2022/10/02 12:30:10;;;;;;;8.13;1.67;;;18.30;93.40;;;;;;5053774;28;20032;-60
2022/10/02 12:32:54;;;;;;;6.07;2.45;;;17.70;95.50;;;;;;5051136;28;20039;-60
2022/10/02 12:35:38;;;;;;;12.82;3.00;;;18.20;96.60;;;;;;5051113;28;20037;-60
2022/10/02 12:38:51;;;;;;;12.32;1.75;;;18.60;96.80;;;;;;5050646;28;20182;-59
2022/10/02 12:41:42;;;;;;;4.15;1.17;;;18.50;93.60;;;;;;5016696;28;20120;-59
2022/10/02 12:44:52;;;;;;;6.90;2.25;;;18.30;93.40;;;;;;5050053;28;20054;-59
2022/10/02 12:47:40;;;;;;;6.90;1.80;;;18.80;94.30;;;;;;5048871;28;20072;-60
2022/10/02 12:50:42;;;;;;;3.78;1.35;;;18.20;93.40;;;;;;5049867;28;20021;-59
2022/10/02 12:53:39;;;;;;;3.08;1.27;;;18.30;92.50;;;;;;5048795;28;20548;-59
2022/10/02 12:56:04;;;;;;;6.00;1.75;;;18.20;92.00;;;;;;5049510;28;20422;-59
2022/10/02 12:59:18;;;;;;;2.53;1.17;;;18.30;92.40;;;;;;5049787;28;20029;-58
2022/10/02 13:02:04;;;;;;;6.65;2.72;;;18.10;91.80;;;;;;5044853;28;20087;-59
2022/10/02 13:05:07;;;;;;;4.18;1.58;;;17.90;92.30;;;;;;5050343;28;20037;-60
2022/10/02 13:08:04;;;;;;;4.75;1.50;;;18.30;92.50;;;;;;5050657;28;20036;-59
2022/10/02 13:10:37;;;;;;;5.13;1.42;;;18.70;92.80;;;;;;5050567;28;20032;-59
2022/10/02 13:13:14;;;;;;;5.15;1.33;;;18.60;90.10;;;;;;5051381;28;20032;-58
2022/10/02 13:15:57;;;;;;;4.20;1.02;;;18.20;89.00;;;;;;5051132;28;20053;-58
2022/10/02 13:18:42;;;;;;;7.75;2.00;;;18.20;88.10;;;;;;5049893;28;20033;-58
2022/10/02 13:21:29;;;;;;;4.72;1.73;;;18.40;88.10;;;;;;5051277;28;20055;-58
2022/10/02 13:24:08;;;;;;;4.32;1.00;;;18.60;87.90;;;;;;5051389;28;20033;-59
2022/10/02 13:27:01;;;;;;;6.72;0.93;;;18.40;86.60;;;;;;5050974;28;20495;-59
2022/10/02 13:29:26;;;;;;;3.70;0.60;;;18.30;85.30;;;;;;5050447;28;20031;-59
2022/10/02 13:32:01;;;;;;;9.35;1.33;;;18.10;85.80;;;;;;5050763;28;20115;-58
2022/10/02 13:34:47;;;;;;;4.57;0.80;;;18.10;86.40;;;;;;5048616;28;20489;-58
2022/10/02 13:37:36;;;;;;;3.78;1.15;;;18.30;88.80;;;;;;5050372;28;20048;-58
2022/10/02 13:40:13;;;;;;;;;;;18.40;86.80;;;;;;5049872;28;20028;-58
2022/10/02 13:42:57;;;;;;;7.93;1.10;;;18.30;85.00;;;;;;5049504;28;19904;-58
2022/10/02 13:45:43;;;;;;;5.13;1.48;;;18.20;87.10;;;;;;5050755;28;20018;-58
2022/10/02 13:48:37;;;;;;;6.88;2.33;;;18.00;88.90;;;;;;5050738;28;20053;-57
2022/10/02 13:51:21;;;;;;;5.53;1.58;;;17.90;86.30;;;;;;5050590;28;20025;-57
2022/10/02 13:54:08;;;;;;;10.40;2.15;;;17.60;86.70;;;;;;5050591;28;20060;-57
2022/10/02 13:56:42;;;;;;;5.13;1.42;;;17.40;88.50;;;;;;5050579;28;20032;-57
2022/10/02 13:59:20;;;;;;;6.28;1.98;;;17.20;88.50;;;;;;5050502;28;20052;-57
2022/10/02 14:02:15;;;;;;;5.68;1.15;;;17.10;88.70;;;;;;5050362;28;20079;-57
2022/10/02 14:05:05;;;;;;;6.47;1.83;;;16.90;90.10;;;;;;5040976;28;20534;-58
2022/10/02 14:08:00;;;;;;;4.10;1.45;;;16.90;90.20;;;;;;5050030;28;20494;-59
2022/10/02 14:10:37;;;;;;;3.05;1.33;;;16.90;90.90;;;;;;5032249;28;20036;-59